sensor_id;sensor_type;location;lat;lon;timestamp;P1;durP1;ratioP1;P2;durP2;ratioP2
25567;SDS011;13455;51.480;7.594;2023-07-13T00:00:29;6.23;;;1.70;;
25567;SDS011;13455;51.480;7.594;2023-07-13T00:02:57;6.85;;;1.52;;
25567;SDS011;13455;51.480;7.594;2023-07-13T00:05:22;5.78;;;1.50;;
25567;SDS011;13455;51.480;7.594;2023-07-13T00:07:49;8.27;;;1.50;;
25567;SDS011;13455;51.480;7.594;2023-07-13T00:10:15;6.13;;;1.60;;
25567;SDS011;13455;51.480;7.594;2023-07-13T00:12:42;5.13;;;1.50;;
25567;SDS011;13455;51.480;7.594;2023-07-13T00:15:13;6.00;;;1.50;;
25567;SDS011;13455;51.480;7.594;2023-07-13T00:17:41;7.13;;;1.58;;
25567;SDS011;13455;51.480;7.594;2023-07-13T00:20:09;6.75;;;1.42;;
25567;SDS011;13455;51.480;7.594;2023-07-13T00:22:36;6.97;;;1.67;;
25567;SDS011;13455;51.480;7.594;2023-07-13T00:25:02;5.97;;;1.50;;
25567;SDS011;13455;51.480;7.594;2023-07-13T00:27:28;6.78;;;1.40;;
25567;SDS011;13455;51.480;7.594;2023-07-13T00:29:55;5.40;;;1.40;;
25567;SDS011;13455;51.480;7.594;2023-07-13T00:32:20;6.07;;;1.80;;
25567;SDS011;13455;51.480;7.594;2023-07-13T00:34:46;6.57;;;1.80;;
25567;SDS011;13455;51.480;7.594;2023-07-13T00:37:12;9.23;;;1.50;;
25567;SDS011;13455;51.480;7.594;2023-07-13T00:39:38;5.90;;;1.70;;
25567;SDS011;13455;51.480;7.594;2023-07-13T00:42:04;7.40;;;1.52;;
25567;SDS011;13455;51.480;7.594;2023-07-13T00:44:30;6.70;;;1.60;;
25567;SDS011;13455;51.480;7.594;2023-07-13T00:46:56;5.45;;;1.50;;
25567;SDS011;13455;51.480;7.594;2023-07-13T00:49:23;7.32;;;1.70;;
25567;SDS011;13455;51.480;7.594;2023-07-13T00:51:55;6.70;;;1.52;;
25567;SDS011;13455;51.480;7.594;2023-07-13T00:54:29;8.65;;;1.60;;
25567;SDS011;13455;51.480;7.594;2023-07-13T00:57:03;6.72;;;1.70;;
25567;SDS011;13455;51.480;7.594;2023-07-13T00:59:31;4.97;;;1.50;;
25567;SDS011;13455;51.480;7.594;2023-07-13T01:01:59;7.88;;;1.70;;
25567;SDS011;13455;51.480;7.594;2023-07-13T01:04:26;4.57;;;1.42;;
25567;SDS011;13455;51.480;7.594;2023-07-13T01:06:52;7.45;;;1.63;;
25567;SDS011;13455;51.480;7.594;2023-07-13T01:09:19;5.63;;;1.60;;
25567;SDS011;13455;51.480;7.594;2023-07-13T01:11:45;6.40;;;1.55;;
25567;SDS011;13455;51.480;7.594;2023-07-13T01:14:12;6.90;;;1.50;;
25567;SDS011;13455;51.480;7.594;2023-07-13T01:16:38;7.95;;;1.58;;
25567;SDS011;13455;51.480;7.594;2023-07-13T01:19:07;7.35;;;1.45;;
25567;SDS011;13455;51.480;7.594;2023-07-13T01:21:41;8.57;;;1.50;;
25567;SDS011;13455;51.480;7.594;2023-07-13T01:24:08;6.25;;;1.70;;
25567;SDS011;13455;51.480;7.594;2023-07-13T01:26:34;7.47;;;1.80;;
25567;SDS011;13455;51.480;7.594;2023-07-13T01:28:59;7.80;;;1.60;;
25567;SDS011;13455;51.480;7.594;2023-07-13T01:31:25;8.43;;;1.50;;
25567;SDS011;13455;51.480;7.594;2023-07-13T01:33:51;6.50;;;1.50;;
25567;SDS011;13455;51.480;7.594;2023-07-13T01:36:17;5.53;;;1.40;;
25567;SDS011;13455;51.480;7.594;2023-07-13T01:38:42;8.67;;;1.60;;
25567;SDS011;13455;51.480;7.594;2023-07-13T01:41:09;6.13;;;1.50;;
25567;SDS011;13455;51.480;7.594;2023-07-13T01:43:35;5.35;;;1.20;;
25567;SDS011;13455;51.480;7.594;2023-07-13T01:46:00;5.03;;;1.40;;
25567;SDS011;13455;51.480;7.594;2023-07-13T01:48:26;4.13;;;1.23;;
25567;SDS011;13455;51.480;7.594;2023-07-13T01:50:52;6.68;;;1.42;;
25567;SDS011;13455;51.480;7.594;2023-07-13T01:53:17;6.23;;;1.50;;
25567;SDS011;13455;51.480;7.594;2023-07-13T01:55:43;5.40;;;1.40;;
25567;SDS011;13455;51.480;7.594;2023-07-13T01:58:08;6.18;;;1.40;;
25567;SDS011;13455;51.480;7.594;2023-07-13T02:00:34;6.43;;;1.50;;
25567;SDS011;13455;51.480;7.594;2023-07-13T02:02:59;5.30;;;1.40;;
25567;SDS011;13455;51.480;7.594;2023-07-13T02:05:25;5.15;;;1.40;;
25567;SDS011;13455;51.480;7.594;2023-07-13T02:07:51;7.68;;;1.52;;
25567;SDS011;13455;51.480;7.594;2023-07-13T02:10:17;7.80;;;1.30;;
25567;SDS011;13455;51.480;7.594;2023-07-13T02:12:43;5.33;;;1.40;;
25567;SDS011;13455;51.480;7.594;2023-07-13T02:15:09;7.23;;;1.57;;
25567;SDS011;13455;51.480;7.594;2023-07-13T02:17:35;6.10;;;1.80;;
25567;SDS011;13455;51.480;7.594;2023-07-13T02:20:02;8.35;;;1.63;;
25567;SDS011;13455;51.480;7.594;2023-07-13T02:22:29;8.88;;;1.90;;
25567;SDS011;13455;51.480;7.594;2023-07-13T02:24:55;7.43;;;1.90;;
25567;SDS011;13455;51.480;7.594;2023-07-13T02:27:20;7.00;;;1.70;;
25567;SDS011;13455;51.480;7.594;2023-07-13T02:29:46;8.27;;;2.03;;
25567;SDS011;13455;51.480;7.594;2023-07-13T02:32:12;4.95;;;1.45;;
25567;SDS011;13455;51.480;7.594;2023-07-13T02:34:37;5.00;;;1.47;;
25567;SDS011;13455;51.480;7.594;2023-07-13T02:37:03;5.00;;;1.80;;
25567;SDS011;13455;51.480;7.594;2023-07-13T02:39:29;5.75;;;1.55;;
25567;SDS011;13455;51.480;7.594;2023-07-13T02:41:57;7.60;;;1.65;;
25567;SDS011;13455;51.480;7.594;2023-07-13T02:44:24;5.20;;;1.60;;
25567;SDS011;13455;51.480;7.594;2023-07-13T02:46:49;6.80;;;1.80;;
25567;SDS011;13455;51.480;7.594;2023-07-13T02:49:15;7.97;;;2.05;;
25567;SDS011;13455;51.480;7.594;2023-07-13T02:51:40;6.10;;;1.50;;
25567;SDS011;13455;51.480;7.594;2023-07-13T02:54:06;5.70;;;1.47;;
25567;SDS011;13455;51.480;7.594;2023-07-13T02:56:33;7.60;;;1.70;;
25567;SDS011;13455;51.480;7.594;2023-07-13T02:58:59;7.28;;;1.77;;
25567;SDS011;13455;51.480;7.594;2023-07-13T03:01:25;5.50;;;1.58;;
25567;SDS011;13455;51.480;7.594;2023-07-13T03:03:51;6.43;;;1.52;;
25567;SDS011;13455;51.480;7.594;2023-07-13T03:06:17;5.67;;;1.40;;
25567;SDS011;13455;51.480;7.594;2023-07-13T03:08:43;6.57;;;1.63;;
25567;SDS011;13455;51.480;7.594;2023-07-13T03:11:11;6.40;;;1.60;;
25567;SDS011;13455;51.480;7.594;2023-07-13T03:13:37;9.02;;;1.90;;
25567;SDS011;13455;51.480;7.594;2023-07-13T03:16:04;5.53;;;1.60;;
25567;SDS011;13455;51.480;7.594;2023-07-13T03:18:30;7.73;;;1.70;;
25567;SDS011;13455;51.480;7.594;2023-07-13T03:20:56;9.60;;;1.57;;
25567;SDS011;13455;51.480;7.594;2023-07-13T03:23:23;6.68;;;1.70;;
25567;SDS011;13455;51.480;7.594;2023-07-13T03:25:50;6.50;;;1.67;;
25567;SDS011;13455;51.480;7.594;2023-07-13T03:28:16;6.03;;;1.70;;
25567;SDS011;13455;51.480;7.594;2023-07-13T03:30:42;7.40;;;1.90;;
25567;SDS011;13455;51.480;7.594;2023-07-13T03:33:08;9.70;;;2.40;;
25567;SDS011;13455;51.480;7.594;2023-07-13T03:35:34;7.05;;;2.00;;
25567;SDS011;13455;51.480;7.594;2023-07-13T03:38:00;13.00;;;2.38;;
25567;SDS011;13455;51.480;7.594;2023-07-13T03:40:27;8.18;;;2.20;;
25567;SDS011;13455;51.480;7.594;2023-07-13T03:42:52;7.68;;;2.13;;
25567;SDS011;13455;51.480;7.594;2023-07-13T03:45:18;12.13;;;2.30;;
25567;SDS011;13455;51.480;7.594;2023-07-13T03:47:44;7.90;;;2.10;;
25567;SDS011;13455;51.480;7.594;2023-07-13T03:50:10;7.82;;;2.20;;
25567;SDS011;13455;51.480;7.594;2023-07-13T03:52:36;6.68;;;2.10;;
25567;SDS011;13455;51.480;7.594;2023-07-13T03:55:01;7.43;;;2.10;;
25567;SDS011;13455;51.480;7.594;2023-07-13T03:57:27;5.60;;;2.00;;
25567;SDS011;13455;51.480;7.594;2023-07-13T03:59:52;9.67;;;2.03;;
25567;SDS011;13455;51.480;7.594;2023-07-13T04:02:18;5.75;;;1.90;;
25567;SDS011;13455;51.480;7.594;2023-07-13T04:04:44;6.27;;;2.20;;
25567;SDS011;13455;51.480;7.594;2023-07-13T04:07:11;8.05;;;2.15;;
25567;SDS011;13455;51.480;7.594;2023-07-13T04:09:37;6.50;;;1.80;;
25567;SDS011;13455;51.480;7.594;2023-07-13T04:12:03;8.30;;;1.90;;
25567;SDS011;13455;51.480;7.594;2023-07-13T04:14:29;7.70;;;1.70;;
25567;SDS011;13455;51.480;7.594;2023-07-13T04:16:55;6.18;;;1.70;;
25567;SDS011;13455;51.480;7.594;2023-07-13T04:19:22;6.75;;;1.73;;
25567;SDS011;13455;51.480;7.594;2023-07-13T04:21:48;6.18;;;1.75;;
25567;SDS011;13455;51.480;7.594;2023-07-13T04:24:14;7.65;;;2.00;;
25567;SDS011;13455;51.480;7.594;2023-07-13T04:26:40;7.50;;;1.77;;
25567;SDS011;13455;51.480;7.594;2023-07-13T04:29:06;8.53;;;1.83;;
25567;SDS011;13455;51.480;7.594;2023-07-13T04:31:33;6.00;;;1.55;;
25567;SDS011;13455;51.480;7.594;2023-07-13T04:33:59;6.00;;;1.65;;
25567;SDS011;13455;51.480;7.594;2023-07-13T04:36:25;6.93;;;1.60;;
25567;SDS011;13455;51.480;7.594;2023-07-13T04:38:54;7.45;;;1.90;;
25567;SDS011;13455;51.480;7.594;2023-07-13T04:41:20;6.20;;;1.75;;
25567;SDS011;13455;51.480;7.594;2023-07-13T04:43:46;6.70;;;1.60;;
25567;SDS011;13455;51.480;7.594;2023-07-13T04:46:13;5.90;;;1.58;;
25567;SDS011;13455;51.480;7.594;2023-07-13T04:48:40;7.00;;;1.50;;
25567;SDS011;13455;51.480;7.594;2023-07-13T04:51:06;7.03;;;1.63;;
25567;SDS011;13455;51.480;7.594;2023-07-13T04:53:32;7.88;;;1.88;;
25567;SDS011;13455;51.480;7.594;2023-07-13T04:55:59;8.38;;;1.70;;
25567;SDS011;13455;51.480;7.594;2023-07-13T04:58:25;6.32;;;1.80;;
25567;SDS011;13455;51.480;7.594;2023-07-13T05:00:52;6.85;;;1.60;;
25567;SDS011;13455;51.480;7.594;2023-07-13T05:03:18;6.38;;;1.70;;
25567;SDS011;13455;51.480;7.594;2023-07-13T05:05:53;6.75;;;1.70;;
25567;SDS011;13455;51.480;7.594;2023-07-13T05:08:20;8.73;;;1.98;;
25567;SDS011;13455;51.480;7.594;2023-07-13T05:10:45;6.88;;;1.60;;
25567;SDS011;13455;51.480;7.594;2023-07-13T05:13:11;7.20;;;1.63;;
25567;SDS011;13455;51.480;7.594;2023-07-13T05:15:37;7.55;;;1.50;;
25567;SDS011;13455;51.480;7.594;2023-07-13T05:18:03;8.38;;;1.73;;
25567;SDS011;13455;51.480;7.594;2023-07-13T05:20:29;5.75;;;1.70;;
25567;SDS011;13455;51.480;7.594;2023-07-13T05:22:56;7.20;;;2.00;;
25567;SDS011;13455;51.480;7.594;2023-07-13T05:25:22;7.60;;;1.70;;
25567;SDS011;13455;51.480;7.594;2023-07-13T05:27:47;8.80;;;1.83;;
25567;SDS011;13455;51.480;7.594;2023-07-13T05:30:14;10.83;;;1.77;;
25567;SDS011;13455;51.480;7.594;2023-07-13T05:32:40;11.52;;;2.05;;
25567;SDS011;13455;51.480;7.594;2023-07-13T05:35:06;9.35;;;1.90;;
25567;SDS011;13455;51.480;7.594;2023-07-13T05:37:32;7.90;;;1.70;;
25567;SDS011;13455;51.480;7.594;2023-07-13T05:39:58;9.15;;;2.40;;
25567;SDS011;13455;51.480;7.594;2023-07-13T05:42:24;6.93;;;1.80;;
25567;SDS011;13455;51.480;7.594;2023-07-13T05:44:50;7.93;;;2.00;;
25567;SDS011;13455;51.480;7.594;2023-07-13T05:47:16;7.78;;;1.80;;
25567;SDS011;13455;51.480;7.594;2023-07-13T05:49:42;7.85;;;1.80;;
25567;SDS011;13455;51.480;7.594;2023-07-13T05:52:08;7.90;;;2.28;;
25567;SDS011;13455;51.480;7.594;2023-07-13T05:54:35;7.72;;;2.05;;
25567;SDS011;13455;51.480;7.594;2023-07-13T05:57:00;7.95;;;2.33;;
25567;SDS011;13455;51.480;7.594;2023-07-13T05:59:26;9.35;;;2.30;;
25567;SDS011;13455;51.480;7.594;2023-07-13T06:01:52;9.63;;;2.30;;
25567;SDS011;13455;51.480;7.594;2023-07-13T06:04:19;8.73;;;2.20;;
25567;SDS011;13455;51.480;7.594;2023-07-13T06:06:45;9.50;;;2.30;;
25567;SDS011;13455;51.480;7.594;2023-07-13T06:09:11;10.38;;;2.40;;
25567;SDS011;13455;51.480;7.594;2023-07-13T06:11:37;9.82;;;2.33;;
25567;SDS011;13455;51.480;7.594;2023-07-13T06:14:03;8.57;;;2.50;;
25567;SDS011;13455;51.480;7.594;2023-07-13T06:16:29;10.50;;;2.60;;
25567;SDS011;13455;51.480;7.594;2023-07-13T06:18:55;9.80;;;2.30;;
25567;SDS011;13455;51.480;7.594;2023-07-13T06:21:22;10.48;;;2.78;;
25567;SDS011;13455;51.480;7.594;2023-07-13T06:23:49;11.80;;;2.63;;
25567;SDS011;13455;51.480;7.594;2023-07-13T06:26:16;7.75;;;2.42;;
25567;SDS011;13455;51.480;7.594;2023-07-13T06:28:43;7.22;;;2.35;;
25567;SDS011;13455;51.480;7.594;2023-07-13T06:31:09;8.75;;;2.58;;
25567;SDS011;13455;51.480;7.594;2023-07-13T06:33:36;10.82;;;2.75;;
25567;SDS011;13455;51.480;7.594;2023-07-13T06:36:03;10.05;;;2.55;;
25567;SDS011;13455;51.480;7.594;2023-07-13T06:38:31;8.97;;;2.67;;
25567;SDS011;13455;51.480;7.594;2023-07-13T06:40:57;10.00;;;2.30;;
25567;SDS011;13455;51.480;7.594;2023-07-13T06:43:23;8.67;;;2.63;;
25567;SDS011;13455;51.480;7.594;2023-07-13T06:45:50;9.07;;;2.50;;
25567;SDS011;13455;51.480;7.594;2023-07-13T06:48:16;8.38;;;2.30;;
25567;SDS011;13455;51.480;7.594;2023-07-13T06:50:42;9.65;;;2.30;;
25567;SDS011;13455;51.480;7.594;2023-07-13T06:53:09;9.52;;;2.60;;
25567;SDS011;13455;51.480;7.594;2023-07-13T06:55:35;9.27;;;2.40;;
25567;SDS011;13455;51.480;7.594;2023-07-13T06:58:01;8.35;;;2.30;;
25567;SDS011;13455;51.480;7.594;2023-07-13T07:00:27;10.20;;;2.38;;
25567;SDS011;13455;51.480;7.594;2023-07-13T07:02:53;9.82;;;2.38;;
25567;SDS011;13455;51.480;7.594;2023-07-13T07:05:18;11.67;;;2.70;;
25567;SDS011;13455;51.480;7.594;2023-07-13T07:07:46;9.10;;;2.42;;
25567;SDS011;13455;51.480;7.594;2023-07-13T07:10:16;6.85;;;2.35;;
25567;SDS011;13455;51.480;7.594;2023-07-13T07:12:42;11.07;;;2.28;;
25567;SDS011;13455;51.480;7.594;2023-07-13T07:15:08;8.80;;;2.50;;
25567;SDS011;13455;51.480;7.594;2023-07-13T07:17:34;11.23;;;2.70;;
25567;SDS011;13455;51.480;7.594;2023-07-13T07:19:59;11.10;;;2.38;;
25567;SDS011;13455;51.480;7.594;2023-07-13T07:22:25;8.00;;;2.17;;
25567;SDS011;13455;51.480;7.594;2023-07-13T07:24:52;9.40;;;2.70;;
25567;SDS011;13455;51.480;7.594;2023-07-13T07:27:19;9.65;;;2.45;;
25567;SDS011;13455;51.480;7.594;2023-07-13T07:29:45;9.35;;;2.58;;
25567;SDS011;13455;51.480;7.594;2023-07-13T07:32:10;10.05;;;2.50;;
25567;SDS011;13455;51.480;7.594;2023-07-13T07:34:36;10.10;;;2.60;;
25567;SDS011;13455;51.480;7.594;2023-07-13T07:37:01;9.23;;;2.50;;
25567;SDS011;13455;51.480;7.594;2023-07-13T07:39:28;9.05;;;2.38;;
25567;SDS011;13455;51.480;7.594;2023-07-13T07:41:53;9.27;;;2.63;;
25567;SDS011;13455;51.480;7.594;2023-07-13T07:44:19;7.40;;;2.40;;
25567;SDS011;13455;51.480;7.594;2023-07-13T07:46:45;10.13;;;2.40;;
25567;SDS011;13455;51.480;7.594;2023-07-13T07:49:11;8.73;;;2.42;;
25567;SDS011;13455;51.480;7.594;2023-07-13T07:51:37;10.77;;;2.33;;
25567;SDS011;13455;51.480;7.594;2023-07-13T07:54:03;10.23;;;2.43;;
25567;SDS011;13455;51.480;7.594;2023-07-13T07:56:29;10.60;;;2.30;;
25567;SDS011;13455;51.480;7.594;2023-07-13T07:58:55;9.27;;;2.28;;
25567;SDS011;13455;51.480;7.594;2023-07-13T08:01:21;9.20;;;2.20;;
25567;SDS011;13455;51.480;7.594;2023-07-13T08:03:47;10.50;;;2.15;;
25567;SDS011;13455;51.480;7.594;2023-07-13T08:06:12;7.85;;;2.20;;
25567;SDS011;13455;51.480;7.594;2023-07-13T08:08:38;8.07;;;2.03;;
25567;SDS011;13455;51.480;7.594;2023-07-13T08:11:05;7.00;;;1.73;;
25567;SDS011;13455;51.480;7.594;2023-07-13T08:13:32;6.90;;;1.98;;
25567;SDS011;13455;51.480;7.594;2023-07-13T08:15:57;7.65;;;1.90;;
25567;SDS011;13455;51.480;7.594;2023-07-13T08:18:23;10.27;;;2.00;;
25567;SDS011;13455;51.480;7.594;2023-07-13T08:20:49;6.07;;;1.80;;
25567;SDS011;13455;51.480;7.594;2023-07-13T08:23:15;8.50;;;2.13;;
25567;SDS011;13455;51.480;7.594;2023-07-13T08:25:41;7.88;;;1.85;;
25567;SDS011;13455;51.480;7.594;2023-07-13T08:28:07;7.03;;;1.70;;
25567;SDS011;13455;51.480;7.594;2023-07-13T08:30:33;9.77;;;2.10;;
25567;SDS011;13455;51.480;7.594;2023-07-13T08:32:59;7.30;;;2.00;;
25567;SDS011;13455;51.480;7.594;2023-07-13T08:35:24;7.78;;;2.00;;
25567;SDS011;13455;51.480;7.594;2023-07-13T08:37:51;7.35;;;2.20;;
25567;SDS011;13455;51.480;7.594;2023-07-13T08:40:16;8.18;;;2.22;;
25567;SDS011;13455;51.480;7.594;2023-07-13T08:42:45;8.20;;;1.90;;
25567;SDS011;13455;51.480;7.594;2023-07-13T08:47:54;6.32;;;1.90;;
25567;SDS011;13455;51.480;7.594;2023-07-13T08:50:27;7.72;;;1.95;;
25567;SDS011;13455;51.480;7.594;2023-07-13T08:52:58;6.50;;;1.77;;
25567;SDS011;13455;51.480;7.594;2023-07-13T08:55:25;8.02;;;1.90;;
25567;SDS011;13455;51.480;7.594;2023-07-13T08:58:01;8.30;;;1.90;;
25567;SDS011;13455;51.480;7.594;2023-07-13T09:00:48;8.00;;;1.80;;
25567;SDS011;13455;51.480;7.594;2023-07-13T09:03:24;5.30;;;1.52;;
25567;SDS011;13455;51.480;7.594;2023-07-13T09:05:54;9.05;;;1.90;;
25567;SDS011;13455;51.480;7.594;2023-07-13T09:16:48;6.72;;;2.00;;
25567;SDS011;13455;51.480;7.594;2023-07-13T09:19:18;6.83;;;1.80;;
25567;SDS011;13455;51.480;7.594;2023-07-13T09:21:49;8.50;;;1.90;;
25567;SDS011;13455;51.480;7.594;2023-07-13T09:24:38;7.47;;;1.98;;
25567;SDS011;13455;51.480;7.594;2023-07-13T09:27:23;5.03;;;1.60;;
25567;SDS011;13455;51.480;7.594;2023-07-13T09:29:58;8.17;;;1.93;;
25567;SDS011;13455;51.480;7.594;2023-07-13T09:32:52;8.02;;;1.80;;
25567;SDS011;13455;51.480;7.594;2023-07-13T09:35:22;6.00;;;1.75;;
25567;SDS011;13455;51.480;7.594;2023-07-13T09:37:58;8.20;;;1.83;;
25567;SDS011;13455;51.480;7.594;2023-07-13T09:43:38;6.37;;;1.73;;
25567;SDS011;13455;51.480;7.594;2023-07-13T09:46:04;7.65;;;1.80;;
25567;SDS011;13455;51.480;7.594;2023-07-13T09:48:34;9.45;;;1.80;;
25567;SDS011;13455;51.480;7.594;2023-07-13T09:51:14;6.97;;;2.00;;
25567;SDS011;13455;51.480;7.594;2023-07-13T09:53:41;4.93;;;1.70;;
25567;SDS011;13455;51.480;7.594;2023-07-13T09:56:18;9.00;;;1.80;;
25567;SDS011;13455;51.480;7.594;2023-07-13T09:58:49;6.03;;;1.80;;
25567;SDS011;13455;51.480;7.594;2023-07-13T10:01:15;7.20;;;1.93;;
25567;SDS011;13455;51.480;7.594;2023-07-13T10:03:55;4.57;;;1.60;;
25567;SDS011;13455;51.480;7.594;2023-07-13T10:06:21;5.72;;;1.73;;
25567;SDS011;13455;51.480;7.594;2023-07-13T10:08:47;6.65;;;1.50;;
25567;SDS011;13455;51.480;7.594;2023-07-13T10:13:48;7.60;;;1.60;;
25567;SDS011;13455;51.480;7.594;2023-07-13T10:16:20;4.78;;;1.70;;
25567;SDS011;13455;51.480;7.594;2023-07-13T10:18:55;8.13;;;1.92;;
25567;SDS011;13455;51.480;7.594;2023-07-13T10:21:30;5.93;;;1.50;;
25567;SDS011;13455;51.480;7.594;2023-07-13T10:29:23;4.72;;;1.60;;
25567;SDS011;13455;51.480;7.594;2023-07-13T10:31:52;6.13;;;1.80;;
25567;SDS011;13455;51.480;7.594;2023-07-13T10:34:17;7.00;;;1.83;;
25567;SDS011;13455;51.480;7.594;2023-07-13T10:36:44;6.82;;;1.70;;
25567;SDS011;13455;51.480;7.594;2023-07-13T10:39:17;7.07;;;1.70;;
25567;SDS011;13455;51.480;7.594;2023-07-13T10:42:01;5.95;;;2.08;;
25567;SDS011;13455;51.480;7.594;2023-07-13T10:44:31;5.28;;;1.80;;
25567;SDS011;13455;51.480;7.594;2023-07-13T10:47:01;7.03;;;2.00;;
25567;SDS011;13455;51.480;7.594;2023-07-13T10:49:38;6.47;;;2.10;;
25567;SDS011;13455;51.480;7.594;2023-07-13T10:52:05;7.03;;;1.80;;
25567;SDS011;13455;51.480;7.594;2023-07-13T10:54:32;5.82;;;1.80;;
25567;SDS011;13455;51.480;7.594;2023-07-13T10:59:41;7.35;;;1.80;;
25567;SDS011;13455;51.480;7.594;2023-07-13T11:04:53;5.70;;;1.73;;
25567;SDS011;13455;51.480;7.594;2023-07-13T11:07:24;7.18;;;1.50;;
25567;SDS011;13455;51.480;7.594;2023-07-13T11:09:58;7.35;;;1.67;;
25567;SDS011;13455;51.480;7.594;2023-07-13T11:22:46;4.78;;;1.60;;
25567;SDS011;13455;51.480;7.594;2023-07-13T11:27:51;7.60;;;1.85;;
25567;SDS011;13455;51.480;7.594;2023-07-13T11:30:21;5.53;;;1.80;;
25567;SDS011;13455;51.480;7.594;2023-07-13T11:35:38;6.50;;;1.67;;
25567;SDS011;13455;51.480;7.594;2023-07-13T11:38:14;4.10;;;1.50;;
25567;SDS011;13455;51.480;7.594;2023-07-13T11:40:44;6.38;;;1.65;;
25567;SDS011;13455;51.480;7.594;2023-07-13T11:43:14;5.57;;;1.45;;
25567;SDS011;13455;51.480;7.594;2023-07-13T11:45:40;5.13;;;1.65;;
25567;SDS011;13455;51.480;7.594;2023-07-13T11:48:16;5.00;;;1.73;;
25567;SDS011;13455;51.480;7.594;2023-07-13T11:50:49;5.40;;;1.60;;
25567;SDS011;13455;51.480;7.594;2023-07-13T11:53:16;4.95;;;1.50;;
25567;SDS011;13455;51.480;7.594;2023-07-13T11:55:42;6.53;;;1.70;;
25567;SDS011;13455;51.480;7.594;2023-07-13T11:58:08;6.93;;;1.75;;
25567;SDS011;13455;51.480;7.594;2023-07-13T12:00:34;7.20;;;1.70;;
25567;SDS011;13455;51.480;7.594;2023-07-13T12:03:02;4.93;;;1.60;;
25567;SDS011;13455;51.480;7.594;2023-07-13T12:05:30;5.75;;;1.67;;
25567;SDS011;13455;51.480;7.594;2023-07-13T12:07:57;5.63;;;1.50;;
25567;SDS011;13455;51.480;7.594;2023-07-13T12:13:00;5.67;;;1.60;;
25567;SDS011;13455;51.480;7.594;2023-07-13T12:15:46;6.90;;;1.73;;
25567;SDS011;13455;51.480;7.594;2023-07-13T12:18:14;5.43;;;1.50;;
25567;SDS011;13455;51.480;7.594;2023-07-13T12:20:43;4.72;;;1.40;;
25567;SDS011;13455;51.480;7.594;2023-07-13T12:23:31;4.40;;;1.50;;
25567;SDS011;13455;51.480;7.594;2023-07-13T12:25:58;7.07;;;1.55;;
25567;SDS011;13455;51.480;7.594;2023-07-13T12:31:24;3.95;;;1.27;;
25567;SDS011;13455;51.480;7.594;2023-07-13T12:34:10;3.37;;;1.30;;
25567;SDS011;13455;51.480;7.594;2023-07-13T12:36:37;4.28;;;1.45;;
25567;SDS011;13455;51.480;7.594;2023-07-13T12:39:06;4.53;;;1.55;;
25567;SDS011;13455;51.480;7.594;2023-07-13T12:41:37;6.30;;;1.55;;
25567;SDS011;13455;51.480;7.594;2023-07-13T12:44:03;4.07;;;1.35;;
25567;SDS011;13455;51.480;7.594;2023-07-13T12:46:30;4.30;;;1.40;;
25567;SDS011;13455;51.480;7.594;2023-07-13T12:48:56;4.65;;;1.50;;
25567;SDS011;13455;51.480;7.594;2023-07-13T12:51:24;5.10;;;1.40;;
25567;SDS011;13455;51.480;7.594;2023-07-13T12:54:05;4.13;;;1.47;;
25567;SDS011;13455;51.480;7.594;2023-07-13T12:56:32;5.55;;;1.25;;
25567;SDS011;13455;51.480;7.594;2023-07-13T12:59:00;4.22;;;1.45;;
25567;SDS011;13455;51.480;7.594;2023-07-13T13:01:29;3.47;;;1.38;;
25567;SDS011;13455;51.480;7.594;2023-07-13T13:03:57;4.45;;;1.50;;
25567;SDS011;13455;51.480;7.594;2023-07-13T13:06:31;4.47;;;1.30;;
25567;SDS011;13455;51.480;7.594;2023-07-13T13:08:58;6.05;;;1.50;;
25567;SDS011;13455;51.480;7.594;2023-07-13T13:11:25;3.67;;;1.30;;
25567;SDS011;13455;51.480;7.594;2023-07-13T13:13:52;4.80;;;1.50;;
25567;SDS011;13455;51.480;7.594;2023-07-13T13:16:22;4.00;;;1.40;;
25567;SDS011;13455;51.480;7.594;2023-07-13T13:18:50;6.27;;;1.67;;
25567;SDS011;13455;51.480;7.594;2023-07-13T13:21:17;4.45;;;1.63;;
25567;SDS011;13455;51.480;7.594;2023-07-13T13:23:44;6.43;;;1.40;;
25567;SDS011;13455;51.480;7.594;2023-07-13T13:26:14;5.40;;;1.48;;
25567;SDS011;13455;51.480;7.594;2023-07-13T13:28:43;3.55;;;1.40;;
25567;SDS011;13455;51.480;7.594;2023-07-13T13:31:09;5.70;;;1.40;;
25567;SDS011;13455;51.480;7.594;2023-07-13T13:33:40;6.63;;;1.50;;
25567;SDS011;13455;51.480;7.594;2023-07-13T13:36:19;4.85;;;1.50;;
25567;SDS011;13455;51.480;7.594;2023-07-13T13:38:47;4.57;;;1.60;;
25567;SDS011;13455;51.480;7.594;2023-07-13T13:41:14;4.57;;;1.40;;
25567;SDS011;13455;51.480;7.594;2023-07-13T13:43:41;3.92;;;1.40;;
25567;SDS011;13455;51.480;7.594;2023-07-13T13:46:28;3.78;;;1.30;;
25567;SDS011;13455;51.480;7.594;2023-07-13T13:48:55;4.57;;;1.40;;
25567;SDS011;13455;51.480;7.594;2023-07-13T13:51:22;4.20;;;1.42;;
25567;SDS011;13455;51.480;7.594;2023-07-13T13:53:49;4.45;;;1.42;;
25567;SDS011;13455;51.480;7.594;2023-07-13T13:56:15;7.70;;;1.60;;
25567;SDS011;13455;51.480;7.594;2023-07-13T13:58:43;11.25;;;2.20;;
25567;SDS011;13455;51.480;7.594;2023-07-13T14:01:12;11.10;;;2.27;;
25567;SDS011;13455;51.480;7.594;2023-07-13T14:03:41;7.97;;;2.10;;
25567;SDS011;13455;51.480;7.594;2023-07-13T14:06:13;9.40;;;2.20;;
25567;SDS011;13455;51.480;7.594;2023-07-13T14:08:40;5.47;;;1.90;;
25567;SDS011;13455;51.480;7.594;2023-07-13T14:11:07;6.80;;;2.00;;
25567;SDS011;13455;51.480;7.594;2023-07-13T14:13:38;6.20;;;2.10;;
25567;SDS011;13455;51.480;7.594;2023-07-13T14:16:10;5.03;;;2.00;;
25567;SDS011;13455;51.480;7.594;2023-07-13T14:18:37;4.93;;;2.00;;
25567;SDS011;13455;51.480;7.594;2023-07-13T14:21:08;3.70;;;1.95;;
25567;SDS011;13455;51.480;7.594;2023-07-13T14:23:36;6.43;;;2.60;;
25567;SDS011;13455;51.480;7.594;2023-07-13T14:26:02;3.95;;;1.95;;
25567;SDS011;13455;51.480;7.594;2023-07-13T14:28:29;5.65;;;2.30;;
25567;SDS011;13455;51.480;7.594;2023-07-13T14:30:54;4.90;;;2.20;;
25567;SDS011;13455;51.480;7.594;2023-07-13T14:33:20;5.18;;;1.83;;
25567;SDS011;13455;51.480;7.594;2023-07-13T14:35:46;4.87;;;1.90;;
25567;SDS011;13455;51.480;7.594;2023-07-13T14:38:13;5.97;;;2.05;;
25567;SDS011;13455;51.480;7.594;2023-07-13T14:40:41;4.70;;;1.98;;
25567;SDS011;13455;51.480;7.594;2023-07-13T14:43:09;5.43;;;2.20;;
25567;SDS011;13455;51.480;7.594;2023-07-13T14:45:40;4.40;;;2.00;;
25567;SDS011;13455;51.480;7.594;2023-07-13T14:48:25;5.55;;;1.90;;
25567;SDS011;13455;51.480;7.594;2023-07-13T14:50:55;5.25;;;2.05;;
25567;SDS011;13455;51.480;7.594;2023-07-13T14:53:22;5.03;;;2.20;;
25567;SDS011;13455;51.480;7.594;2023-07-13T14:55:50;6.53;;;2.25;;
25567;SDS011;13455;51.480;7.594;2023-07-13T14:58:15;5.57;;;2.10;;
25567;SDS011;13455;51.480;7.594;2023-07-13T15:00:41;4.35;;;1.80;;
25567;SDS011;13455;51.480;7.594;2023-07-13T15:03:11;5.77;;;2.00;;
25567;SDS011;13455;51.480;7.594;2023-07-13T15:05:44;5.60;;;2.10;;
25567;SDS011;13455;51.480;7.594;2023-07-13T15:08:10;5.13;;;2.40;;
25567;SDS011;13455;51.480;7.594;2023-07-13T15:10:36;16.95;;;4.32;;
25567;SDS011;13455;51.480;7.594;2023-07-13T15:13:21;11.30;;;3.95;;
25567;SDS011;13455;51.480;7.594;2023-07-13T15:15:49;8.10;;;3.10;;
25567;SDS011;13455;51.480;7.594;2023-07-13T15:18:20;7.60;;;3.17;;
25567;SDS011;13455;51.480;7.594;2023-07-13T15:20:49;6.47;;;3.05;;
25567;SDS011;13455;51.480;7.594;2023-07-13T15:23:16;8.00;;;3.17;;
25567;SDS011;13455;51.480;7.594;2023-07-13T15:25:42;7.28;;;2.83;;
25567;SDS011;13455;51.480;7.594;2023-07-13T15:28:08;7.17;;;2.90;;
25567;SDS011;13455;51.480;7.594;2023-07-13T15:30:38;7.80;;;3.30;;
25567;SDS011;13455;51.480;7.594;2023-07-13T15:33:12;6.55;;;2.85;;
25567;SDS011;13455;51.480;7.594;2023-07-13T15:35:42;6.00;;;2.77;;
25567;SDS011;13455;51.480;7.594;2023-07-13T15:38:19;6.57;;;2.70;;